KSAD/SAD METAR and TAF weather

Enter ICAO airport designator
Station Type Date Time Source
KSAD METAR 2019/11/15 04:51 UTC NOAA

KSAD 150451Z AUTO 13008KT 10SM CLR 17/M04 A3024 RMK AO2 SLP211 T01671039


Station Type Date Time Source
KSAD Decoded METAR 2019/11/15 04:51 UTC NOAA

SAFFORD MUNICIPAL AIRPORT, AZ, United States (KSAD) 32-51N 109-38W 962M
Nov 14, 2019 - 11:51 PM EST / 2019.11.15 0451 UTC
Wind: from the SE (130 degrees) at 9 MPH (8 KT):0
Visibility: 10 mile(s):0
Sky conditions: clear
Temperature: 62.1 F (16.7 C)
Dew Point: 25.0 F (-3.9 C)
Relative Humidity: 24%
Pressure (altimeter): 30.24 in. Hg (1024 hPa)
ob: KSAD 150451Z AUTO 13008KT 10SM CLR 17/M04 A3024 RMK AO2 SLP211 T01671039
cycle: 5

Station Type Date Time Source
KSAD TAF UTC NOAA

Error!

Example: see airport list